Aviation Digital Data Service (ADDS)

Output produced by METARs form (0841 UTC 24 March 2019)
found at http://www.aviationweather.gov/metar/data/
 
Forecast for: LEPA (PALMA DE MALLORC, ES)
Text: TAF LEPA 240500Z 2406/2506 VRB03KT 9999 FEW040 TX22/2413Z TN05/2406Z
Forecast period: 0600 to 0800 UTC 24 March 2019
Forecast type: FROM: standard forecast or significant change
Winds: variable direction winds at 3 MPH (3 knots; 1.5 m/s)
Visibility: 6 or more miles 10+ km)
Ceiling: at least 12,000 feet AGL
Clouds: few clouds at 4000 feet AGL
Weather: no significant weather forecast for this period
Text: BECMG 2408/2410 22011KT
Forecast period: 0800 to 1800 UTC 24 March 2019
Forecast type: BECOMING: Conditions expected to become as follows by 1000 UTC 24 March 2019
Winds: from the SW (220 degrees) at 13 MPH (11 knots; 5.7 m/s)
Visibility: 6 or more miles 10+ km)
Ceiling: at least 12,000 feet AGL
Clouds: few clouds at 4000 feet AGL
Weather: no significant weather forecast for this period
Text: BECMG 2418/2420 VRB03KT
Forecast period: 1800 UTC 24 March 2019 to 0600 UTC 25 March 2019
Forecast type: BECOMING: Conditions expected to become as follows by 2000 UTC 24 March 2019
Winds: variable direction winds at 3 MPH (3 knots; 1.5 m/s)
Visibility: 6 or more miles 10+ km)
Ceiling: at least 12,000 feet AGL
Clouds: few clouds at 4000 feet AGL
Weather: no significant weather forecast for this period